Time,TemperatureF,DewpointF,PressureIn,WindDirection,WindDirectionDegrees,WindSpeedMPH,WindSpeedGustMPH,Humidity,HourlyPrecipIn,Conditions,Clouds,dailyrainin,SoftwareType,DateUTC
2013-02-04 00:02:00,28.0,20.0,-100.00,North,-999,-999.0,-999.0,71,0.00,,,-99.99,,2013-02-04 06:02:00,
2013-02-04 00:11:00,29.0,20.0,-100.00,North,-999,-999.0,-999.0,71,0.00,,,-99.99,,2013-02-04 06:11:00,
2013-02-04 00:21:00,29.0,20.0,-100.00,North,-999,-999.0,-999.0,71,0.00,,,-99.99,,2013-02-04 06:21:00,
2013-02-04 00:32:00,29.0,21.0,-100.00,North,-999,-999.0,-999.0,71,0.00,,,-99.99,,2013-02-04 06:32:00,
2013-02-04 00:41:00,29.0,21.0,-100.00,North,-999,-999.0,-999.0,72,0.00,,,-99.99,,2013-02-04 06:41:00,
2013-02-04 00:51:00,30.0,22.0,-100.00,North,-999,-999.0,-999.0,71,0.00,,,-99.99,,2013-02-04 06:51:00,
2013-02-04 01:02:00,30.0,22.0,-100.00,North,-999,-999.0,-999.0,71,0.00,,,-99.99,,2013-02-04 07:02:00,
2013-02-04 01:11:00,30.0,22.0,-100.00,North,-999,-999.0,-999.0,71,0.00,,,-99.99,,2013-02-04 07:11:00,
2013-02-04 01:21:00,30.0,22.0,-100.00,North,-999,-999.0,-999.0,71,0.00,,,-99.99,,2013-02-04 07:21:00,
2013-02-04 01:32:00,30.0,23.0,-100.00,North,-999,-999.0,-999.0,72,0.00,,,-99.99,,2013-02-04 07:32:00,
2013-02-04 01:41:00,31.0,23.0,-100.00,North,-999,-999.0,-999.0,71,0.00,,,-99.99,,2013-02-04 07:41:00,
2013-02-04 01:51:00,33.0,24.0,-100.00,North,-999,-999.0,-999.0,69,0.00,,,-99.99,,2013-02-04 07:51:00,
2013-02-04 02:01:00,33.0,24.0,-100.00,North,-999,-999.0,-999.0,69,0.00,,,-99.99,,2013-02-04 08:01:00,
2013-02-04 02:11:00,33.0,24.0,-100.00,North,-999,-999.0,-999.0,69,0.00,,,-99.99,,2013-02-04 08:11:00,
2013-02-04 02:21:00,34.0,25.0,-100.00,North,-999,-999.0,-999.0,69,0.00,,,-99.99,,2013-02-04 08:21:00,
2013-02-04 02:31:00,34.0,25.0,-100.00,North,-999,-999.0,-999.0,69,0.00,,,-99.99,,2013-02-04 08:31:00,
2013-02-04 02:42:00,34.0,25.0,-100.00,North,-999,-999.0,-999.0,69,0.00,,,-99.99,,2013-02-04 08:42:00,
2013-02-04 02:52:00,33.0,25.0,-100.00,North,-999,-999.0,-999.0,72,0.00,,,-99.99,,2013-02-04 08:52:00,
2013-02-04 03:02:00,33.0,25.0,-100.00,North,-999,-999.0,-999.0,72,0.00,,,-99.99,,2013-02-04 09:02:00,
2013-02-04 03:11:00,33.0,25.0,-100.00,North,-999,-999.0,-999.0,73,0.00,,,-99.99,,2013-02-04 09:11:00,
2013-02-04 03:21:00,33.0,25.0,-100.00,North,-999,-999.0,-999.0,73,0.00,,,-99.99,,2013-02-04 09:21:00,
2013-02-04 03:31:00,32.0,25.0,-100.00,North,-999,-999.0,-999.0,75,0.00,,,-99.99,,2013-02-04 09:31:00,
2013-02-04 03:41:00,32.0,25.0,-100.00,North,-999,-999.0,-999.0,75,0.00,,,-99.99,,2013-02-04 09:41:00,
2013-02-04 03:51:00,32.0,25.0,-100.00,North,-999,-999.0,-999.0,76,0.00,,,-99.99,,2013-02-04 09:51:00,
2013-02-04 04:01:00,32.0,25.0,-100.00,North,-999,-999.0,-999.0,76,0.00,,,-99.99,,2013-02-04 10:01:00,
2013-02-04 04:11:00,32.0,25.0,-100.00,North,-999,-999.0,-999.0,76,0.00,,,-99.99,,2013-02-04 10:11:00,
2013-02-04 04:21:00,31.0,25.0,-100.00,North,-999,-999.0,-999.0,76,0.00,,,-99.99,,2013-02-04 10:21:00,
2013-02-04 04:32:00,31.0,25.0,-100.00,North,-999,-999.0,-999.0,77,0.00,,,-99.99,,2013-02-04 10:32:00,
2013-02-04 04:41:00,30.0,24.0,-100.00,North,-999,-999.0,-999.0,77,0.00,,,-99.99,,2013-02-04 10:41:00,
2013-02-04 04:51:00,30.0,25.0,-100.00,North,-999,-999.0,-999.0,80,0.00,,,-99.99,,2013-02-04 10:51:00,
2013-02-04 05:02:00,30.0,25.0,-100.00,North,-999,-999.0,-999.0,80,0.00,,,-99.99,,2013-02-04 11:02:00,
2013-02-04 05:11:00,30.0,26.0,-100.00,North,-999,-999.0,-999.0,83,0.00,,,-99.99,,2013-02-04 11:11:00,
2013-02-04 05:22:00,30.0,26.0,-100.00,North,-999,-999.0,-999.0,84,0.00,,,-99.99,,2013-02-04 11:22:00,
2013-02-04 05:32:00,29.0,25.0,-100.00,North,-999,-999.0,-999.0,84,0.00,,,-99.99,,2013-02-04 11:32:00,
2013-02-04 05:42:00,29.0,25.0,-100.00,North,-999,-999.0,-999.0,84,0.00,,,-99.99,,2013-02-04 11:42:00,
2013-02-04 05:52:00,26.0,22.0,-100.00,North,-999,-999.0,-999.0,84,0.00,,,-99.99,,2013-02-04 11:52:00,
2013-02-04 06:02:00,26.0,22.0,-100.00,North,-999,-999.0,-999.0,84,0.00,,,-99.99,,2013-02-04 12:02:00,
2013-02-04 06:12:00,25.0,22.0,-100.00,North,-999,-999.0,-999.0,86,0.00,,,-99.99,,2013-02-04 12:12:00,
2013-02-04 06:21:00,25.0,21.0,-100.00,North,-999,-999.0,-999.0,87,0.00,,,-99.99,,2013-02-04 12:21:00,
2013-02-04 06:32:00,24.0,21.0,-100.00,North,-999,-999.0,-999.0,89,0.00,,,-99.99,,2013-02-04 12:32:00,
2013-02-04 06:42:00,24.0,21.0,-100.00,North,-999,-999.0,-999.0,89,0.00,,,-99.99,,2013-02-04 12:42:00,
2013-02-04 06:52:00,24.0,21.0,-100.00,North,-999,-999.0,-999.0,89,0.00,,,-99.99,,2013-02-04 12:52:00,
2013-02-04 07:02:00,24.0,21.0,-100.00,North,-999,-999.0,-999.0,89,0.00,,,-99.99,,2013-02-04 13:02:00,
2013-02-04 07:12:00,24.0,21.0,-100.00,North,-999,-999.0,-999.0,89,0.00,,,-99.99,,2013-02-04 13:12:00,
2013-02-04 07:21:00,24.0,22.0,-100.00,North,-999,-999.0,-999.0,90,0.00,,,-99.99,,2013-02-04 13:21:00,
2013-02-04 07:33:00,24.0,23.0,-100.00,North,-999,-999.0,-999.0,95,0.00,,,-99.99,,2013-02-04 13:33:00,
2013-02-04 07:42:00,24.0,23.0,-100.00,North,-999,-999.0,-999.0,95,0.00,,,-99.99,,2013-02-04 13:42:00,
2013-02-04 07:51:00,24.0,24.0,-100.00,North,-999,-999.0,-999.0,98,0.00,,,-99.99,,2013-02-04 13:51:00,
2013-02-04 08:03:00,24.0,24.0,-100.00,North,-999,-999.0,-999.0,98,0.00,,,-99.99,,2013-02-04 14:03:00,
2013-02-04 08:12:00,24.0,-99.9,-100.00,North,-999,-999.0,-999.0,-999,0.00,,,-99.99,,2013-02-04 14:12:00,
2013-02-04 08:23:00,24.0,-99.9,-100.00,North,-999,-999.0,-999.0,-999,0.00,,,-99.99,,2013-02-04 14:23:00,
2013-02-04 08:33:00,23.0,-99.9,-100.00,North,-999,-999.0,-999.0,-999,0.00,,,-99.99,,2013-02-04 14:33:00,
2013-02-04 08:43:00,23.0,-99.9,-100.00,North,-999,-999.0,-999.0,-999,0.00,,,-99.99,,2013-02-04 14:43:00,
2013-02-04 08:53:00,22.0,-99.9,-100.00,North,-999,-999.0,-999.0,-999,0.00,,,-99.99,,2013-02-04 14:53:00,
2013-02-04 09:04:00,22.0,-99.9,-100.00,North,-999,-999.0,-999.0,-999,0.00,,,-99.99,,2013-02-04 15:04:00,
2013-02-04 09:13:00,22.0,-99.9,-100.00,North,-999,-999.0,-999.0,-999,0.00,,,-99.99,,2013-02-04 15:13:00,
2013-02-04 09:24:00,22.0,-99.9,-100.00,North,-999,-999.0,-999.0,-999,0.00,,,-99.99,,2013-02-04 15:24:00,
2013-02-04 09:34:00,21.0,-99.9,-100.00,North,-999,-999.0,-999.0,-999,0.00,,,-99.99,,2013-02-04 15:34:00,
2013-02-04 09:43:00,21.0,-99.9,-100.00,North,-999,-999.0,-999.0,-999,0.00,,,-99.99,,2013-02-04 15:43:00,
2013-02-04 09:53:00,21.0,-99.9,-100.00,North,-999,-999.0,-999.0,-999,0.00,,,-99.99,,2013-02-04 15:53:00,
2013-02-04 10:03:00,21.0,-99.9,-100.00,North,-999,-999.0,-999.0,-999,0.00,,,-99.99,,2013-02-04 16:03:00,
2013-02-04 10:12:00,20.0,-99.9,-100.00,North,-999,-999.0,-999.0,-999,0.00,,,-99.99,,2013-02-04 16:12:00,
2013-02-04 10:23:00,21.0,-99.9,-100.00,North,-999,-999.0,-999.0,-999,0.00,,,-99.99,,2013-02-04 16:23:00,
2013-02-04 10:33:00,21.0,21.0,-100.00,North,-999,-999.0,-999.0,98,0.00,,,-99.99,,2013-02-04 16:33:00,
2013-02-04 10:42:00,21.0,21.0,-100.00,North,-999,-999.0,-999.0,98,0.00,,,-99.99,,2013-02-04 16:42:00,
2013-02-04 10:51:00,21.0,20.0,-100.00,North,-999,-999.0,-999.0,96,0.00,,,-99.99,,2013-02-04 16:51:00,
2013-02-04 11:02:00,21.0,20.0,-100.00,North,-999,-999.0,-999.0,96,0.00,,,-99.99,,2013-02-04 17:02:00,
2013-02-04 11:11:00,21.0,20.0,-100.00,North,-999,-999.0,-999.0,95,0.00,,,-99.99,,2013-02-04 17:11:00,
2013-02-04 11:21:00,21.0,20.0,-100.00,North,-999,-999.0,-999.0,95,0.00,,,-99.99,,2013-02-04 17:21:00,
2013-02-04 11:32:00,22.0,21.0,-100.00,North,-999,-999.0,-999.0,94,0.00,,,-99.99,,2013-02-04 17:32:00,
2013-02-04 11:42:00,22.0,21.0,-100.00,North,-999,-999.0,-999.0,94,0.00,,,-99.99,,2013-02-04 17:42:00,
2013-02-04 11:51:00,22.0,21.0,-100.00,North,-999,-999.0,-999.0,92,0.00,,,-99.99,,2013-02-04 17:51:00,
2013-02-04 12:03:00,22.0,21.0,-100.00,North,-999,-999.0,-999.0,92,0.00,,,-99.99,,2013-02-04 18:03:00,
2013-02-04 12:11:00,24.0,21.0,-100.00,North,-999,-999.0,-999.0,90,0.00,,,-99.99,,2013-02-04 18:11:00,
2013-02-04 12:22:00,24.0,21.0,-100.00,North,-999,-999.0,-999.0,90,0.00,,,-99.99,,2013-02-04 18:22:00,
2013-02-04 12:32:00,25.0,20.0,-100.00,North,-999,-999.0,-999.0,81,0.00,,,-99.99,,2013-02-04 18:32:00,
2013-02-04 12:41:00,25.0,20.0,-100.00,North,-999,-999.0,-999.0,81,0.00,,,-99.99,,2013-02-04 18:41:00,
2013-02-04 12:52:00,25.0,19.0,-100.00,North,-999,-999.0,-999.0,77,0.00,,,-99.99,,2013-02-04 18:52:00,
2013-02-04 13:02:00,25.0,19.0,-100.00,North,-999,-999.0,-999.0,77,0.00,,,-99.99,,2013-02-04 19:02:00,
2013-02-04 13:11:00,25.0,20.0,-100.00,North,-999,-999.0,-999.0,78,0.00,,,-99.99,,2013-02-04 19:11:00,
2013-02-04 13:22:00,25.0,19.0,-100.00,North,-999,-999.0,-999.0,77,0.00,,,-99.99,,2013-02-04 19:22:00,
2013-02-04 13:32:00,26.0,20.0,-100.00,North,-999,-999.0,-999.0,77,0.00,,,-99.99,,2013-02-04 19:32:00,
2013-02-04 13:41:00,25.0,19.0,-100.00,North,-999,-999.0,-999.0,77,0.00,,,-99.99,,2013-02-04 19:41:00,
2013-02-04 13:51:00,26.0,20.0,-100.00,North,-999,-999.0,-999.0,77,0.00,,,-99.99,,2013-02-04 19:51:00,
2013-02-04 14:02:00,26.0,20.0,-100.00,North,-999,-999.0,-999.0,77,0.00,,,-99.99,,2013-02-04 20:02:00,
2013-02-04 14:12:00,25.0,19.0,-100.00,North,-999,-999.0,-999.0,77,0.00,,,-99.99,,2013-02-04 20:12:00,
2013-02-04 14:21:00,25.0,20.0,-100.00,North,-999,-999.0,-999.0,78,0.00,,,-99.99,,2013-02-04 20:21:00,
2013-02-04 14:32:00,26.0,20.0,-100.00,North,-999,-999.0,-999.0,78,0.00,,,-99.99,,2013-02-04 20:32:00,
2013-02-04 14:42:00,26.0,20.0,-100.00,North,-999,-999.0,-999.0,78,0.00,,,-99.99,,2013-02-04 20:42:00,
2013-02-04 14:52:00,25.0,19.0,-100.00,North,-999,-999.0,-999.0,78,0.00,,,-99.99,,2013-02-04 20:52:00,
2013-02-04 15:02:00,25.0,19.0,-100.00,North,-999,-999.0,-999.0,78,0.00,,,-99.99,,2013-02-04 21:02:00,
2013-02-04 15:11:00,25.0,20.0,-100.00,North,-999,-999.0,-999.0,79,0.00,,,-99.99,,2013-02-04 21:11:00,
2013-02-04 15:22:00,25.0,19.0,-100.00,North,-999,-999.0,-999.0,78,0.00,,,-99.99,,2013-02-04 21:22:00,
2013-02-04 15:32:00,24.0,19.0,-100.00,North,-999,-999.0,-999.0,78,0.00,,,-99.99,,2013-02-04 21:32:00,
2013-02-04 15:42:00,24.0,19.0,-100.00,North,-999,-999.0,-999.0,78,0.00,,,-99.99,,2013-02-04 21:42:00,
2013-02-04 15:51:00,25.0,19.0,-100.00,North,-999,-999.0,-999.0,78,0.00,,,-99.99,,2013-02-04 21:51:00,
2013-02-04 16:02:00,25.0,19.0,-100.00,North,-999,-999.0,-999.0,78,0.00,,,-99.99,,2013-02-04 22:02:00,
2013-02-04 16:12:00,24.0,19.0,-100.00,North,-999,-999.0,-999.0,78,0.00,,,-99.99,,2013-02-04 22:12:00,
2013-02-04 16:21:00,25.0,19.0,-100.00,North,-999,-999.0,-999.0,78,0.00,,,-99.99,,2013-02-04 22:21:00,
2013-02-04 16:32:00,25.0,19.0,-100.00,North,-999,-999.0,-999.0,78,0.00,,,-99.99,,2013-02-04 22:32:00,
2013-02-04 16:41:00,25.0,19.0,-100.00,North,-999,-999.0,-999.0,78,0.00,,,-99.99,,2013-02-04 22:41:00,
2013-02-04 16:51:00,24.0,19.0,-100.00,North,-999,-999.0,-999.0,79,0.00,,,-99.99,,2013-02-04 22:51:00,
2013-02-04 17:01:00,24.0,19.0,-100.00,North,-999,-999.0,-999.0,79,0.00,,,-99.99,,2013-02-04 23:01:00,
2013-02-04 17:11:00,24.0,19.0,-100.00,North,-999,-999.0,-999.0,78,0.00,,,-99.99,,2013-02-04 23:11:00,
2013-02-04 17:21:00,24.0,18.0,-100.00,North,-999,-999.0,-999.0,78,0.00,,,-99.99,,2013-02-04 23:21:00,
2013-02-04 17:32:00,24.0,19.0,-100.00,North,-999,-999.0,-999.0,80,0.00,,,-99.99,,2013-02-04 23:32:00,
2013-02-04 17:41:00,24.0,19.0,-100.00,North,-999,-999.0,-999.0,80,0.00,,,-99.99,,2013-02-04 23:41:00,
2013-02-04 17:52:00,24.0,19.0,-100.00,North,-999,-999.0,-999.0,81,0.00,,,-99.99,,2013-02-04 23:52:00,
2013-02-04 18:01:00,24.0,19.0,-100.00,North,-999,-999.0,-999.0,81,0.00,,,-99.99,,2013-02-05 00:01:00,
2013-02-04 18:11:00,24.0,19.0,-100.00,North,-999,-999.0,-999.0,81,0.00,,,-99.99,,2013-02-05 00:11:00,
2013-02-04 18:21:00,24.0,19.0,-100.00,North,-999,-999.0,-999.0,81,0.00,,,-99.99,,2013-02-05 00:21:00,
2013-02-04 18:31:00,23.0,19.0,-100.00,North,-999,-999.0,-999.0,82,0.00,,,-99.99,,2013-02-05 00:31:00,
2013-02-04 18:42:00,23.0,19.0,-100.00,North,-999,-999.0,-999.0,83,0.00,,,-99.99,,2013-02-05 00:42:00,
2013-02-04 18:51:00,23.0,19.0,-100.00,North,-999,-999.0,-999.0,83,0.00,,,-99.99,,2013-02-05 00:51:00,
2013-02-04 19:01:00,23.0,19.0,-100.00,North,-999,-999.0,-999.0,83,0.00,,,-99.99,,2013-02-05 01:01:00,
2013-02-04 19:11:00,22.0,18.0,-100.00,North,-999,-999.0,-999.0,84,0.00,,,-99.99,,2013-02-05 01:11:00,
2013-02-04 19:22:00,23.0,19.0,-100.00,North,-999,-999.0,-999.0,85,0.00,,,-99.99,,2013-02-05 01:22:00,
2013-02-04 19:32:00,22.0,19.0,-100.00,North,-999,-999.0,-999.0,85,0.00,,,-99.99,,2013-02-05 01:32:00,
2013-02-04 19:42:00,22.0,19.0,-100.00,North,-999,-999.0,-999.0,85,0.00,,,-99.99,,2013-02-05 01:42:00,
2013-02-04 19:51:00,22.0,19.0,-100.00,North,-999,-999.0,-999.0,87,0.00,,,-99.99,,2013-02-05 01:51:00,
2013-02-04 20:01:00,22.0,19.0,-100.00,North,-999,-999.0,-999.0,87,0.00,,,-99.99,,2013-02-05 02:01:00,
2013-02-04 20:11:00,22.0,20.0,-100.00,North,-999,-999.0,-999.0,88,0.00,,,-99.99,,2013-02-05 02:11:00,
2013-02-04 20:21:00,22.0,19.0,-100.00,North,-999,-999.0,-999.0,88,0.00,,,-99.99,,2013-02-05 02:21:00,
2013-02-04 20:32:00,22.0,20.0,-100.00,North,-999,-999.0,-999.0,91,0.00,,,-99.99,,2013-02-05 02:32:00,
2013-02-04 20:41:00,22.0,20.0,-100.00,North,-999,-999.0,-999.0,92,0.00,,,-99.99,,2013-02-05 02:41:00,
2013-02-04 20:52:00,21.0,20.0,-100.00,North,-999,-999.0,-999.0,94,0.00,,,-99.99,,2013-02-05 02:52:00,
2013-02-04 21:02:00,21.0,20.0,-100.00,North,-999,-999.0,-999.0,94,0.00,,,-99.99,,2013-02-05 03:02:00,
2013-02-04 21:11:00,21.0,20.0,-100.00,North,-999,-999.0,-999.0,97,0.00,,,-99.99,,2013-02-05 03:11:00,
2013-02-04 21:21:00,21.0,21.0,-100.00,North,-999,-999.0,-999.0,99,0.00,,,-99.99,,2013-02-05 03:21:00,
2013-02-04 21:32:00,21.0,21.0,-100.00,North,-999,-999.0,-999.0,99,0.00,,,-99.99,,2013-02-05 03:32:00,
2013-02-04 21:42:00,21.0,21.0,-100.00,North,-999,-999.0,-999.0,99,0.00,,,-99.99,,2013-02-05 03:42:00,
2013-02-04 21:51:00,21.0,21.0,-100.00,North,-999,-999.0,-999.0,99,0.00,,,-99.99,,2013-02-05 03:51:00,
2013-02-04 22:01:00,21.0,21.0,-100.00,North,-999,-999.0,-999.0,99,0.00,,,-99.99,,2013-02-05 04:01:00,
2013-02-04 22:11:00,21.0,21.0,-100.00,North,-999,-999.0,-999.0,99,0.00,,,-99.99,,2013-02-05 04:11:00,
2013-02-04 22:21:00,21.0,21.0,-100.00,North,-999,-999.0,-999.0,99,0.00,,,-99.99,,2013-02-05 04:21:00,
2013-02-04 22:32:00,22.0,21.0,-100.00,North,-999,-999.0,-999.0,99,0.00,,,-99.99,,2013-02-05 04:32:00,
2013-02-04 22:42:00,22.0,21.0,-100.00,North,-999,-999.0,-999.0,99,0.00,,,-99.99,,2013-02-05 04:42:00,
2013-02-04 22:52:00,22.0,22.0,-100.00,North,-999,-999.0,-999.0,99,0.00,,,-99.99,,2013-02-05 04:52:00,
2013-02-04 23:02:00,22.0,22.0,-100.00,North,-999,-999.0,-999.0,99,0.00,,,-99.99,,2013-02-05 05:02:00,
2013-02-04 23:11:00,22.0,22.0,-100.00,North,-999,-999.0,-999.0,99,0.00,,,-99.99,,2013-02-05 05:11:00,
2013-02-04 23:21:00,22.0,22.0,-100.00,North,-999,-999.0,-999.0,99,0.00,,,-99.99,,2013-02-05 05:21:00,
2013-02-04 23:32:00,22.0,-99.9,-100.00,North,-999,-999.0,-999.0,-999,0.00,,,-99.99,,2013-02-05 05:32:00,
2013-02-04 23:42:00,22.0,-99.9,-100.00,North,-999,-999.0,-999.0,-999,0.00,,,-99.99,,2013-02-05 05:42:00,
2013-02-04 23:52:00,22.0,-99.9,-100.00,North,-999,-999.0,-999.0,-999,0.00,,,-99.99,,2013-02-05 05:52:00,